sensor_id;sensor_type;location;lat;lon;timestamp;P1;durP1;ratioP1;P2;durP2;ratioP2
65535;SDS011;52145;49.342;9.116;2022-09-20T00:01:06;6.50;;;2.45;;
65535;SDS011;52145;49.342;9.116;2022-09-20T00:03:45;5.63;;;2.20;;
65535;SDS011;52145;49.342;9.116;2022-09-20T00:06:12;4.65;;;2.53;;
65535;SDS011;52145;49.342;9.116;2022-09-20T00:08:41;5.82;;;2.33;;
65535;SDS011;52145;49.342;9.116;2022-09-20T00:11:08;9.18;;;2.58;;
65535;SDS011;52145;49.342;9.116;2022-09-20T00:13:36;7.13;;;2.92;;
65535;SDS011;52145;49.342;9.116;2022-09-20T00:16:04;7.32;;;3.22;;
65535;SDS011;52145;49.342;9.116;2022-09-20T00:18:31;5.78;;;2.65;;
65535;SDS011;52145;49.342;9.116;2022-09-20T00:20:56;4.70;;;2.50;;
65535;SDS011;52145;49.342;9.116;2022-09-20T00:23:22;7.13;;;2.42;;
65535;SDS011;52145;49.342;9.116;2022-09-20T00:25:55;7.20;;;2.97;;
65535;SDS011;52145;49.342;9.116;2022-09-20T00:28:25;9.57;;;2.63;;
65535;SDS011;52145;49.342;9.116;2022-09-20T00:30:51;6.65;;;2.92;;
65535;SDS011;52145;49.342;9.116;2022-09-20T00:33:18;9.85;;;4.07;;
65535;SDS011;52145;49.342;9.116;2022-09-20T00:35:44;9.48;;;3.80;;
65535;SDS011;52145;49.342;9.116;2022-09-20T00:38:10;8.85;;;3.58;;
65535;SDS011;52145;49.342;9.116;2022-09-20T00:40:38;8.68;;;3.95;;
65535;SDS011;52145;49.342;9.116;2022-09-20T00:43:04;9.13;;;3.05;;
65535;SDS011;52145;49.342;9.116;2022-09-20T00:45:29;8.40;;;3.60;;
65535;SDS011;52145;49.342;9.116;2022-09-20T00:48:03;5.85;;;3.33;;
65535;SDS011;52145;49.342;9.116;2022-09-20T00:50:43;9.05;;;3.38;;
65535;SDS011;52145;49.342;9.116;2022-09-20T00:53:17;7.45;;;3.22;;
65535;SDS011;52145;49.342;9.116;2022-09-20T00:55:47;6.47;;;3.40;;
65535;SDS011;52145;49.342;9.116;2022-09-20T00:58:17;8.63;;;3.47;;
65535;SDS011;52145;49.342;9.116;2022-09-20T01:00:43;10.50;;;3.92;;
65535;SDS011;52145;49.342;9.116;2022-09-20T01:03:10;10.55;;;3.45;;
65535;SDS011;52145;49.342;9.116;2022-09-20T01:05:39;7.55;;;2.90;;
65535;SDS011;52145;49.342;9.116;2022-09-20T01:08:05;10.75;;;3.40;;
65535;SDS011;52145;49.342;9.116;2022-09-20T01:10:33;7.20;;;2.97;;
65535;SDS011;52145;49.342;9.116;2022-09-20T01:12:59;8.43;;;3.10;;
65535;SDS011;52145;49.342;9.116;2022-09-20T01:15:25;6.22;;;3.42;;
65535;SDS011;52145;49.342;9.116;2022-09-20T01:17:53;7.60;;;3.40;;
65535;SDS011;52145;49.342;9.116;2022-09-20T01:20:21;6.78;;;3.55;;
65535;SDS011;52145;49.342;9.116;2022-09-20T01:28:43;8.30;;;3.78;;
65535;SDS011;52145;49.342;9.116;2022-09-20T01:31:17;3.70;;;2.80;;
65535;SDS011;52145;49.342;9.116;2022-09-20T01:33:57;5.85;;;2.70;;
65535;SDS011;52145;49.342;9.116;2022-09-20T01:36:25;5.13;;;3.05;;
65535;SDS011;52145;49.342;9.116;2022-09-20T01:39:10;6.15;;;3.15;;
65535;SDS011;52145;49.342;9.116;2022-09-20T01:46:55;11.48;;;3.75;;
65535;SDS011;52145;49.342;9.116;2022-09-20T02:01:15;7.90;;;3.70;;
65535;SDS011;52145;49.342;9.116;2022-09-20T02:04:16;7.13;;;3.58;;
65535;SDS011;52145;49.342;9.116;2022-09-20T02:12:54;7.63;;;4.18;;
65535;SDS011;52145;49.342;9.116;2022-09-20T02:18:02;6.32;;;3.60;;
65535;SDS011;52145;49.342;9.116;2022-09-20T02:21:03;8.48;;;5.05;;
65535;SDS011;52145;49.342;9.116;2022-09-20T02:29:11;8.48;;;4.72;;
65535;SDS011;52145;49.342;9.116;2022-09-20T02:35:15;8.57;;;5.20;;
65535;SDS011;52145;49.342;9.116;2022-09-20T02:40:45;9.30;;;5.43;;
65535;SDS011;52145;49.342;9.116;2022-09-20T02:46:05;10.57;;;5.40;;
65535;SDS011;52145;49.342;9.116;2022-09-20T02:51:41;11.20;;;5.55;;
65535;SDS011;52145;49.342;9.116;2022-09-20T03:00:13;10.95;;;5.20;;
65535;SDS011;52145;49.342;9.116;2022-09-20T03:03:07;8.50;;;5.25;;
65535;SDS011;52145;49.342;9.116;2022-09-20T03:05:59;9.82;;;5.10;;
65535;SDS011;52145;49.342;9.116;2022-09-20T03:24:49;12.20;;;5.68;;
65535;SDS011;52145;49.342;9.116;2022-09-20T03:27:34;12.90;;;7.00;;
65535;SDS011;52145;49.342;9.116;2022-09-20T03:33:02;14.52;;;6.75;;
65535;SDS011;52145;49.342;9.116;2022-09-20T03:38:21;10.32;;;6.43;;
65535;SDS011;52145;49.342;9.116;2022-09-20T03:46:24;12.07;;;6.93;;
65535;SDS011;52145;49.342;9.116;2022-09-20T03:49:18;11.25;;;7.30;;
65535;SDS011;52145;49.342;9.116;2022-09-20T03:52:36;15.20;;;8.48;;
65535;SDS011;52145;49.342;9.116;2022-09-20T03:55:20;11.20;;;7.57;;
65535;SDS011;52145;49.342;9.116;2022-09-20T03:58:21;12.68;;;7.22;;
65535;SDS011;52145;49.342;9.116;2022-09-20T04:03:56;11.48;;;7.13;;
65535;SDS011;52145;49.342;9.116;2022-09-20T04:12:19;12.00;;;7.53;;
65535;SDS011;52145;49.342;9.116;2022-09-20T04:15:07;13.52;;;7.50;;
65535;SDS011;52145;49.342;9.116;2022-09-20T04:18:27;9.90;;;6.28;;
65535;SDS011;52145;49.342;9.116;2022-09-20T04:21:30;8.70;;;5.57;;
65535;SDS011;52145;49.342;9.116;2022-09-20T04:26:19;9.60;;;6.78;;
65535;SDS011;52145;49.342;9.116;2022-09-20T04:31:26;20.42;;;13.07;;
65535;SDS011;52145;49.342;9.116;2022-09-20T04:34:15;11.60;;;6.25;;
65535;SDS011;52145;49.342;9.116;2022-09-20T04:36:56;11.77;;;6.10;;
65535;SDS011;52145;49.342;9.116;2022-09-20T04:53:56;10.15;;;6.82;;
65535;SDS011;52145;49.342;9.116;2022-09-20T04:56:57;12.18;;;5.93;;
65535;SDS011;52145;49.342;9.116;2022-09-20T05:11:23;11.48;;;6.45;;
65535;SDS011;52145;49.342;9.116;2022-09-20T05:17:12;8.75;;;5.07;;
65535;SDS011;52145;49.342;9.116;2022-09-20T05:28:10;12.13;;;7.57;;
65535;SDS011;52145;49.342;9.116;2022-09-20T05:30:45;12.73;;;7.50;;
65535;SDS011;52145;49.342;9.116;2022-09-20T05:38:46;12.57;;;7.20;;
65535;SDS011;52145;49.342;9.116;2022-09-20T05:41:18;13.60;;;7.20;;
65535;SDS011;52145;49.342;9.116;2022-09-20T05:44:07;10.43;;;7.30;;
65535;SDS011;52145;49.342;9.116;2022-09-20T05:52:35;15.50;;;8.60;;
65535;SDS011;52145;49.342;9.116;2022-09-20T06:01:14;14.50;;;8.13;;
65535;SDS011;52145;49.342;9.116;2022-09-20T06:04:09;16.73;;;8.88;;
65535;SDS011;52145;49.342;9.116;2022-09-20T06:09:54;12.48;;;7.93;;
65535;SDS011;52145;49.342;9.116;2022-09-20T06:20:46;11.98;;;7.97;;
65535;SDS011;52145;49.342;9.116;2022-09-20T06:23:24;12.80;;;7.85;;
65535;SDS011;52145;49.342;9.116;2022-09-20T06:25:54;14.02;;;8.73;;
65535;SDS011;52145;49.342;9.116;2022-09-20T06:28:30;12.90;;;8.07;;
65535;SDS011;52145;49.342;9.116;2022-09-20T06:30:58;12.90;;;8.90;;
65535;SDS011;52145;49.342;9.116;2022-09-20T06:33:27;11.50;;;8.95;;
65535;SDS011;52145;49.342;9.116;2022-09-20T06:35:59;12.20;;;8.90;;
65535;SDS011;52145;49.342;9.116;2022-09-20T06:41:55;12.95;;;7.82;;
65535;SDS011;52145;49.342;9.116;2022-09-20T06:44:21;11.00;;;7.18;;
65535;SDS011;52145;49.342;9.116;2022-09-20T06:46:47;12.00;;;8.13;;
65535;SDS011;52145;49.342;9.116;2022-09-20T06:49:13;13.57;;;8.05;;
65535;SDS011;52145;49.342;9.116;2022-09-20T06:51:38;13.65;;;7.70;;
65535;SDS011;52145;49.342;9.116;2022-09-20T06:54:04;13.05;;;7.65;;
65535;SDS011;52145;49.342;9.116;2022-09-20T06:56:35;9.40;;;6.72;;
65535;SDS011;52145;49.342;9.116;2022-09-20T06:59:01;11.30;;;7.32;;
65535;SDS011;52145;49.342;9.116;2022-09-20T07:01:28;13.05;;;6.70;;
65535;SDS011;52145;49.342;9.116;2022-09-20T07:03:53;11.70;;;6.97;;
65535;SDS011;52145;49.342;9.116;2022-09-20T07:06:19;10.07;;;6.55;;
65535;SDS011;52145;49.342;9.116;2022-09-20T07:08:45;10.70;;;6.47;;
65535;SDS011;52145;49.342;9.116;2022-09-20T07:11:14;10.18;;;6.70;;
65535;SDS011;52145;49.342;9.116;2022-09-20T07:13:44;10.27;;;6.50;;
65535;SDS011;52145;49.342;9.116;2022-09-20T07:16:14;12.38;;;6.10;;
65535;SDS011;52145;49.342;9.116;2022-09-20T07:18:39;14.63;;;5.82;;
65535;SDS011;52145;49.342;9.116;2022-09-20T07:21:05;9.82;;;6.22;;
65535;SDS011;52145;49.342;9.116;2022-09-20T07:23:41;9.60;;;5.15;;
65535;SDS011;52145;49.342;9.116;2022-09-20T07:26:25;12.23;;;5.57;;
65535;SDS011;52145;49.342;9.116;2022-09-20T07:28:53;12.85;;;5.80;;
65535;SDS011;52145;49.342;9.116;2022-09-20T07:31:20;13.15;;;5.40;;
65535;SDS011;52145;49.342;9.116;2022-09-20T07:33:47;9.45;;;5.72;;
65535;SDS011;52145;49.342;9.116;2022-09-20T07:36:13;9.80;;;5.50;;
65535;SDS011;52145;49.342;9.116;2022-09-20T07:38:39;10.00;;;5.55;;
65535;SDS011;52145;49.342;9.116;2022-09-20T07:41:06;12.60;;;5.22;;
65535;SDS011;52145;49.342;9.116;2022-09-20T07:43:32;9.13;;;4.75;;
65535;SDS011;52145;49.342;9.116;2022-09-20T07:45:58;10.20;;;4.30;;
65535;SDS011;52145;49.342;9.116;2022-09-20T07:48:33;7.63;;;4.88;;
65535;SDS011;52145;49.342;9.116;2022-09-20T07:51:01;8.57;;;4.95;;
65535;SDS011;52145;49.342;9.116;2022-09-20T07:53:29;10.82;;;4.90;;
65535;SDS011;52145;49.342;9.116;2022-09-20T07:55:58;10.43;;;4.45;;
65535;SDS011;52145;49.342;9.116;2022-09-20T07:58:26;8.13;;;3.70;;
65535;SDS011;52145;49.342;9.116;2022-09-20T08:00:54;5.90;;;3.28;;
65535;SDS011;52145;49.342;9.116;2022-09-20T08:03:21;8.75;;;3.25;;
65535;SDS011;52145;49.342;9.116;2022-09-20T08:05:47;11.63;;;3.03;;
65535;SDS011;52145;49.342;9.116;2022-09-20T08:08:14;6.90;;;3.10;;
65535;SDS011;52145;49.342;9.116;2022-09-20T08:10:41;7.93;;;2.97;;
65535;SDS011;52145;49.342;9.116;2022-09-20T08:13:08;7.97;;;3.58;;
65535;SDS011;52145;49.342;9.116;2022-09-20T08:15:34;6.35;;;2.13;;
65535;SDS011;52145;49.342;9.116;2022-09-20T08:18:00;6.57;;;2.22;;
65535;SDS011;52145;49.342;9.116;2022-09-20T08:20:26;7.53;;;2.00;;
65535;SDS011;52145;49.342;9.116;2022-09-20T08:22:51;10.63;;;3.45;;
65535;SDS011;52145;49.342;9.116;2022-09-20T08:25:19;6.28;;;2.03;;
65535;SDS011;52145;49.342;9.116;2022-09-20T08:27:50;4.93;;;1.92;;
65535;SDS011;52145;49.342;9.116;2022-09-20T08:30:17;7.63;;;2.20;;
65535;SDS011;52145;49.342;9.116;2022-09-20T08:32:42;9.90;;;2.67;;
65535;SDS011;52145;49.342;9.116;2022-09-20T08:35:08;7.45;;;2.00;;
65535;SDS011;52145;49.342;9.116;2022-09-20T08:37:34;8.15;;;2.70;;
65535;SDS011;52145;49.342;9.116;2022-09-20T08:39:59;5.65;;;1.60;;
65535;SDS011;52145;49.342;9.116;2022-09-20T08:42:27;6.03;;;2.40;;
65535;SDS011;52145;49.342;9.116;2022-09-20T08:45:00;8.23;;;1.65;;
65535;SDS011;52145;49.342;9.116;2022-09-20T08:47:43;6.90;;;2.17;;
65535;SDS011;52145;49.342;9.116;2022-09-20T08:50:30;11.23;;;1.83;;
65535;SDS011;52145;49.342;9.116;2022-09-20T08:52:58;6.82;;;2.08;;
65535;SDS011;52145;49.342;9.116;2022-09-20T08:55:29;8.25;;;2.30;;
65535;SDS011;52145;49.342;9.116;2022-09-20T08:58:00;12.93;;;2.78;;
65535;SDS011;52145;49.342;9.116;2022-09-20T09:00:30;7.75;;;2.40;;
65535;SDS011;52145;49.342;9.116;2022-09-20T09:02:58;7.80;;;3.42;;
65535;SDS011;52145;49.342;9.116;2022-09-20T09:07:59;6.85;;;2.20;;
65535;SDS011;52145;49.342;9.116;2022-09-20T09:10:34;7.80;;;2.38;;
65535;SDS011;52145;49.342;9.116;2022-09-20T09:13:03;11.93;;;2.13;;
65535;SDS011;52145;49.342;9.116;2022-09-20T09:15:31;8.55;;;2.58;;
65535;SDS011;52145;49.342;9.116;2022-09-20T09:17:59;12.32;;;2.40;;
65535;SDS011;52145;49.342;9.116;2022-09-20T09:20:25;9.57;;;2.20;;
65535;SDS011;52145;49.342;9.116;2022-09-20T09:23:04;6.22;;;2.58;;
65535;SDS011;52145;49.342;9.116;2022-09-20T09:25:36;9.93;;;2.13;;
65535;SDS011;52145;49.342;9.116;2022-09-20T09:35:40;7.95;;;2.10;;
65535;SDS011;52145;49.342;9.116;2022-09-20T09:38:14;5.25;;;1.90;;
65535;SDS011;52145;49.342;9.116;2022-09-20T09:40:56;6.85;;;1.98;;
65535;SDS011;52145;49.342;9.116;2022-09-20T09:43:24;7.38;;;1.60;;
65535;SDS011;52145;49.342;9.116;2022-09-20T09:45:54;7.72;;;2.13;;
65535;SDS011;52145;49.342;9.116;2022-09-20T09:48:22;4.05;;;1.65;;
65535;SDS011;52145;49.342;9.116;2022-09-20T09:53:34;16.77;;;4.60;;
65535;SDS011;52145;49.342;9.116;2022-09-20T10:01:32;7.32;;;1.65;;
65535;SDS011;52145;49.342;9.116;2022-09-20T10:04:20;8.82;;;2.75;;
65535;SDS011;52145;49.342;9.116;2022-09-20T10:07:13;5.70;;;1.70;;
65535;SDS011;52145;49.342;9.116;2022-09-20T10:15:16;21.63;;;11.70;;
65535;SDS011;52145;49.342;9.116;2022-09-20T10:21:39;8.95;;;2.67;;
65535;SDS011;52145;49.342;9.116;2022-09-20T10:23:50;5.15;;;1.58;;
65535;SDS011;52145;49.342;9.116;2022-09-20T10:32:17;5.88;;;1.50;;
65535;SDS011;52145;49.342;9.116;2022-09-20T10:43:23;4.07;;;1.15;;
65535;SDS011;52145;49.342;9.116;2022-09-20T10:46:01;7.88;;;1.75;;
65535;SDS011;52145;49.342;9.116;2022-09-20T10:54:17;9.05;;;1.55;;
65535;SDS011;52145;49.342;9.116;2022-09-20T10:57:10;3.80;;;1.40;;
65535;SDS011;52145;49.342;9.116;2022-09-20T11:08:02;8.13;;;1.60;;
65535;SDS011;52145;49.342;9.116;2022-09-20T11:10:35;5.50;;;1.58;;
65535;SDS011;52145;49.342;9.116;2022-09-20T11:18:17;4.80;;;1.17;;
65535;SDS011;52145;49.342;9.116;2022-09-20T11:21:07;4.22;;;1.20;;
65535;SDS011;52145;49.342;9.116;2022-09-20T11:26:12;4.72;;;1.40;;
65535;SDS011;52145;49.342;9.116;2022-09-20T11:28:46;10.82;;;1.63;;
65535;SDS011;52145;49.342;9.116;2022-09-20T11:31:21;7.07;;;1.90;;
65535;SDS011;52145;49.342;9.116;2022-09-20T11:33:53;5.10;;;1.45;;
65535;SDS011;52145;49.342;9.116;2022-09-20T11:36:47;5.20;;;1.60;;
65535;SDS011;52145;49.342;9.116;2022-09-20T11:39:22;5.53;;;1.63;;
65535;SDS011;52145;49.342;9.116;2022-09-20T11:42:29;4.95;;;1.33;;
65535;SDS011;52145;49.342;9.116;2022-09-20T11:44:59;4.65;;;1.40;;
65535;SDS011;52145;49.342;9.116;2022-09-20T11:47:25;4.45;;;1.45;;
65535;SDS011;52145;49.342;9.116;2022-09-20T11:55:46;11.68;;;2.05;;
65535;SDS011;52145;49.342;9.116;2022-09-20T11:58:23;4.43;;;1.10;;
65535;SDS011;52145;49.342;9.116;2022-09-20T12:00:51;5.63;;;1.50;;
65535;SDS011;52145;49.342;9.116;2022-09-20T12:03:21;3.60;;;1.30;;
65535;SDS011;52145;49.342;9.116;2022-09-20T12:05:57;2.35;;;1.20;;
65535;SDS011;52145;49.342;9.116;2022-09-20T12:08:25;3.03;;;1.20;;
65535;SDS011;52145;49.342;9.116;2022-09-20T12:11:13;4.45;;;1.40;;
65535;SDS011;52145;49.342;9.116;2022-09-20T12:13:40;4.55;;;1.70;;
65535;SDS011;52145;49.342;9.116;2022-09-20T12:16:17;5.88;;;1.23;;
65535;SDS011;52145;49.342;9.116;2022-09-20T12:19:12;3.83;;;1.30;;
65535;SDS011;52145;49.342;9.116;2022-09-20T12:24:33;4.38;;;1.20;;
65535;SDS011;52145;49.342;9.116;2022-09-20T12:27:00;10.32;;;5.93;;
65535;SDS011;52145;49.342;9.116;2022-09-20T12:38:22;9.43;;;2.00;;
65535;SDS011;52145;49.342;9.116;2022-09-20T12:41:09;7.22;;;1.67;;
65535;SDS011;52145;49.342;9.116;2022-09-20T12:43:51;7.00;;;1.45;;
65535;SDS011;52145;49.342;9.116;2022-09-20T12:46:40;6.03;;;1.50;;
65535;SDS011;52145;49.342;9.116;2022-09-20T12:49:21;5.07;;;1.30;;
65535;SDS011;52145;49.342;9.116;2022-09-20T12:52:25;5.72;;;1.40;;
65535;SDS011;52145;49.342;9.116;2022-09-20T12:56:03;8.02;;;1.50;;
65535;SDS011;52145;49.342;9.116;2022-09-20T13:00:38;3.70;;;1.15;;
65535;SDS011;52145;49.342;9.116;2022-09-20T13:03:30;5.43;;;1.30;;
65535;SDS011;52145;49.342;9.116;2022-09-20T13:16:46;3.97;;;1.67;;
65535;SDS011;52145;49.342;9.116;2022-09-20T13:19:40;3.67;;;1.27;;
65535;SDS011;52145;49.342;9.116;2022-09-20T13:22:12;6.13;;;1.50;;
65535;SDS011;52145;49.342;9.116;2022-09-20T13:24:47;4.65;;;1.20;;
65535;SDS011;52145;49.342;9.116;2022-09-20T13:27:16;5.32;;;1.52;;
65535;SDS011;52145;49.342;9.116;2022-09-20T13:29:53;6.88;;;2.15;;
65535;SDS011;52145;49.342;9.116;2022-09-20T13:37:31;5.00;;;1.58;;
65535;SDS011;52145;49.342;9.116;2022-09-20T13:39:57;4.90;;;1.45;;
65535;SDS011;52145;49.342;9.116;2022-09-20T13:42:23;7.03;;;1.58;;
65535;SDS011;52145;49.342;9.116;2022-09-20T13:44:52;6.40;;;1.90;;
65535;SDS011;52145;49.342;9.116;2022-09-20T13:47:28;5.70;;;1.48;;
65535;SDS011;52145;49.342;9.116;2022-09-20T13:49:58;6.28;;;1.30;;
65535;SDS011;52145;49.342;9.116;2022-09-20T13:52:45;5.22;;;1.40;;
65535;SDS011;52145;49.342;9.116;2022-09-20T13:55:20;7.75;;;1.80;;
65535;SDS011;52145;49.342;9.116;2022-09-20T13:57:49;4.03;;;1.20;;
65535;SDS011;52145;49.342;9.116;2022-09-20T14:00:16;8.77;;;1.92;;
65535;SDS011;52145;49.342;9.116;2022-09-20T14:02:42;4.38;;;1.40;;
65535;SDS011;52145;49.342;9.116;2022-09-20T14:05:13;5.32;;;1.45;;
65535;SDS011;52145;49.342;9.116;2022-09-20T14:07:44;4.47;;;1.42;;
65535;SDS011;52145;49.342;9.116;2022-09-20T14:13:03;4.70;;;1.50;;
65535;SDS011;52145;49.342;9.116;2022-09-20T14:15:37;6.90;;;1.73;;
65535;SDS011;52145;49.342;9.116;2022-09-20T14:18:12;3.22;;;1.02;;
65535;SDS011;52145;49.342;9.116;2022-09-20T14:20:41;4.90;;;1.13;;
65535;SDS011;52145;49.342;9.116;2022-09-20T14:23:47;6.18;;;1.95;;
65535;SDS011;52145;49.342;9.116;2022-09-20T14:28:44;6.28;;;1.75;;
65535;SDS011;52145;49.342;9.116;2022-09-20T14:31:14;3.65;;;1.25;;
65535;SDS011;52145;49.342;9.116;2022-09-20T14:36:14;4.35;;;1.38;;
65535;SDS011;52145;49.342;9.116;2022-09-20T14:38:44;5.55;;;1.70;;
65535;SDS011;52145;49.342;9.116;2022-09-20T14:41:12;2.35;;;1.25;;
65535;SDS011;52145;49.342;9.116;2022-09-20T14:43:47;2.65;;;1.50;;
65535;SDS011;52145;49.342;9.116;2022-09-20T14:46:27;3.97;;;1.20;;
65535;SDS011;52145;49.342;9.116;2022-09-20T14:49:57;5.03;;;1.50;;
65535;SDS011;52145;49.342;9.116;2022-09-20T14:57:40;2.25;;;1.10;;
65535;SDS011;52145;49.342;9.116;2022-09-20T15:00:07;4.28;;;1.40;;
65535;SDS011;52145;49.342;9.116;2022-09-20T15:02:37;4.78;;;1.30;;
65535;SDS011;52145;49.342;9.116;2022-09-20T15:05:14;1.77;;;1.20;;
65535;SDS011;52145;49.342;9.116;2022-09-20T15:07:52;2.85;;;1.38;;
65535;SDS011;52145;49.342;9.116;2022-09-20T15:10:19;4.43;;;1.52;;
65535;SDS011;52145;49.342;9.116;2022-09-20T15:12:45;3.42;;;1.45;;
65535;SDS011;52145;49.342;9.116;2022-09-20T15:15:11;6.65;;;1.40;;
65535;SDS011;52145;49.342;9.116;2022-09-20T15:17:39;4.13;;;1.90;;
65535;SDS011;52145;49.342;9.116;2022-09-20T15:20:08;4.85;;;1.30;;
65535;SDS011;52145;49.342;9.116;2022-09-20T15:22:37;4.82;;;1.33;;
65535;SDS011;52145;49.342;9.116;2022-09-20T15:25:03;4.63;;;1.20;;
65535;SDS011;52145;49.342;9.116;2022-09-20T15:27:29;3.75;;;1.27;;
65535;SDS011;52145;49.342;9.116;2022-09-20T15:29:54;5.18;;;1.65;;
65535;SDS011;52145;49.342;9.116;2022-09-20T15:32:20;4.88;;;1.45;;
65535;SDS011;52145;49.342;9.116;2022-09-20T15:34:45;4.82;;;1.38;;
65535;SDS011;52145;49.342;9.116;2022-09-20T15:37:11;3.38;;;1.30;;
65535;SDS011;52145;49.342;9.116;2022-09-20T15:39:36;4.95;;;1.50;;
65535;SDS011;52145;49.342;9.116;2022-09-20T15:42:02;4.88;;;1.38;;
65535;SDS011;52145;49.342;9.116;2022-09-20T15:44:28;3.08;;;1.52;;
65535;SDS011;52145;49.342;9.116;2022-09-20T15:46:53;6.80;;;1.45;;
65535;SDS011;52145;49.342;9.116;2022-09-20T15:49:19;4.78;;;1.50;;
65535;SDS011;52145;49.342;9.116;2022-09-20T15:51:45;5.72;;;1.80;;
65535;SDS011;52145;49.342;9.116;2022-09-20T15:54:12;3.60;;;1.65;;
65535;SDS011;52145;49.342;9.116;2022-09-20T15:56:38;6.05;;;1.83;;
65535;SDS011;52145;49.342;9.116;2022-09-20T15:59:05;3.00;;;1.45;;
65535;SDS011;52145;49.342;9.116;2022-09-20T16:01:32;5.68;;;1.65;;
65535;SDS011;52145;49.342;9.116;2022-09-20T16:04:22;4.68;;;1.33;;
65535;SDS011;52145;49.342;9.116;2022-09-20T16:06:48;4.05;;;1.80;;
65535;SDS011;52145;49.342;9.116;2022-09-20T16:09:14;6.47;;;1.65;;
65535;SDS011;52145;49.342;9.116;2022-09-20T16:11:40;8.60;;;1.85;;
65535;SDS011;52145;49.342;9.116;2022-09-20T16:14:05;5.10;;;1.95;;
65535;SDS011;52145;49.342;9.116;2022-09-20T16:16:32;3.05;;;1.48;;
65535;SDS011;52145;49.342;9.116;2022-09-20T16:18:58;3.60;;;1.55;;
65535;SDS011;52145;49.342;9.116;2022-09-20T16:21:56;3.55;;;1.80;;
65535;SDS011;52145;49.342;9.116;2022-09-20T16:24:23;7.82;;;1.70;;
65535;SDS011;52145;49.342;9.116;2022-09-20T16:26:50;4.82;;;1.63;;
65535;SDS011;52145;49.342;9.116;2022-09-20T16:29:15;4.07;;;1.98;;
65535;SDS011;52145;49.342;9.116;2022-09-20T16:31:45;5.97;;;1.48;;
65535;SDS011;52145;49.342;9.116;2022-09-20T16:34:13;7.18;;;1.67;;
65535;SDS011;52145;49.342;9.116;2022-09-20T16:36:44;3.85;;;1.88;;
65535;SDS011;52145;49.342;9.116;2022-09-20T16:39:11;4.72;;;1.63;;
65535;SDS011;52145;49.342;9.116;2022-09-20T16:41:37;3.58;;;1.30;;
65535;SDS011;52145;49.342;9.116;2022-09-20T16:44:03;2.67;;;1.30;;
65535;SDS011;52145;49.342;9.116;2022-09-20T16:46:29;7.22;;;1.67;;
65535;SDS011;52145;49.342;9.116;2022-09-20T16:48:57;5.10;;;1.73;;
65535;SDS011;52145;49.342;9.116;2022-09-20T16:51:27;4.90;;;1.70;;
65535;SDS011;52145;49.342;9.116;2022-09-20T16:53:59;6.97;;;1.70;;
65535;SDS011;52145;49.342;9.116;2022-09-20T16:56:26;5.20;;;1.65;;
65535;SDS011;52145;49.342;9.116;2022-09-20T16:58:58;7.25;;;1.60;;
65535;SDS011;52145;49.342;9.116;2022-09-20T17:01:24;4.38;;;1.63;;
65535;SDS011;52145;49.342;9.116;2022-09-20T17:03:49;6.68;;;2.78;;
65535;SDS011;52145;49.342;9.116;2022-09-20T17:06:15;4.63;;;2.67;;
65535;SDS011;52145;49.342;9.116;2022-09-20T17:08:42;5.97;;;2.70;;
65535;SDS011;52145;49.342;9.116;2022-09-20T17:11:20;4.53;;;2.10;;
65535;SDS011;52145;49.342;9.116;2022-09-20T17:13:48;5.65;;;1.88;;
65535;SDS011;52145;49.342;9.116;2022-09-20T17:16:39;5.30;;;1.63;;
65535;SDS011;52145;49.342;9.116;2022-09-20T17:21:31;4.18;;;1.67;;
65535;SDS011;52145;49.342;9.116;2022-09-20T17:23:57;5.07;;;3.83;;
65535;SDS011;52145;49.342;9.116;2022-09-20T17:26:25;29.17;;;15.05;;
65535;SDS011;52145;49.342;9.116;2022-09-20T17:28:55;6.40;;;2.92;;
65535;SDS011;52145;49.342;9.116;2022-09-20T17:31:23;5.93;;;2.40;;
65535;SDS011;52145;49.342;9.116;2022-09-20T17:33:55;5.63;;;1.65;;
65535;SDS011;52145;49.342;9.116;2022-09-20T17:36:29;5.40;;;1.55;;
65535;SDS011;52145;49.342;9.116;2022-09-20T17:38:56;3.83;;;1.58;;
65535;SDS011;52145;49.342;9.116;2022-09-20T17:41:23;4.90;;;2.03;;
65535;SDS011;52145;49.342;9.116;2022-09-20T17:43:54;6.20;;;2.53;;
65535;SDS011;52145;49.342;9.116;2022-09-20T17:46:21;5.40;;;2.10;;
65535;SDS011;52145;49.342;9.116;2022-09-20T17:48:54;7.78;;;2.30;;
65535;SDS011;52145;49.342;9.116;2022-09-20T17:51:32;5.78;;;2.13;;
65535;SDS011;52145;49.342;9.116;2022-09-20T17:53:58;5.95;;;2.30;;
65535;SDS011;52145;49.342;9.116;2022-09-20T17:56:24;5.30;;;1.98;;
65535;SDS011;52145;49.342;9.116;2022-09-20T17:58:53;5.28;;;2.20;;
65535;SDS011;52145;49.342;9.116;2022-09-20T18:01:20;7.57;;;2.95;;
65535;SDS011;52145;49.342;9.116;2022-09-20T18:03:47;8.13;;;2.90;;
65535;SDS011;52145;49.342;9.116;2022-09-20T18:06:17;6.25;;;3.53;;
65535;SDS011;52145;49.342;9.116;2022-09-20T18:08:45;11.88;;;4.05;;
65535;SDS011;52145;49.342;9.116;2022-09-20T18:11:16;13.55;;;4.40;;
65535;SDS011;52145;49.342;9.116;2022-09-20T18:13:43;8.98;;;3.20;;
65535;SDS011;52145;49.342;9.116;2022-09-20T18:16:09;8.13;;;3.10;;
65535;SDS011;52145;49.342;9.116;2022-09-20T18:18:36;6.30;;;2.83;;
65535;SDS011;52145;49.342;9.116;2022-09-20T18:23:39;9.32;;;3.60;;
65535;SDS011;52145;49.342;9.116;2022-09-20T18:26:06;5.95;;;3.08;;
65535;SDS011;52145;49.342;9.116;2022-09-20T18:31:20;9.50;;;3.95;;
65535;SDS011;52145;49.342;9.116;2022-09-20T18:34:13;11.60;;;4.18;;
65535;SDS011;52145;49.342;9.116;2022-09-20T18:36:42;8.15;;;3.20;;
65535;SDS011;52145;49.342;9.116;2022-09-20T18:39:31;10.57;;;3.78;;
65535;SDS011;52145;49.342;9.116;2022-09-20T18:41:57;7.60;;;3.00;;
65535;SDS011;52145;49.342;9.116;2022-09-20T18:44:23;8.70;;;3.47;;
65535;SDS011;52145;49.342;9.116;2022-09-20T18:46:50;7.78;;;3.33;;
65535;SDS011;52145;49.342;9.116;2022-09-20T18:49:17;10.27;;;4.32;;
65535;SDS011;52145;49.342;9.116;2022-09-20T18:51:44;8.88;;;3.65;;
65535;SDS011;52145;49.342;9.116;2022-09-20T18:54:11;9.25;;;3.08;;
65535;SDS011;52145;49.342;9.116;2022-09-20T18:56:37;7.38;;;3.72;;
65535;SDS011;52145;49.342;9.116;2022-09-20T19:17:43;7.28;;;3.60;;
65535;SDS011;52145;49.342;9.116;2022-09-20T19:20:19;8.02;;;3.53;;
65535;SDS011;52145;49.342;9.116;2022-09-20T19:25:38;10.10;;;4.72;;
65535;SDS011;52145;49.342;9.116;2022-09-20T19:28:08;12.68;;;4.43;;
65535;SDS011;52145;49.342;9.116;2022-09-20T19:30:35;9.73;;;4.05;;
65535;SDS011;52145;49.342;9.116;2022-09-20T19:33:03;8.32;;;3.83;;
65535;SDS011;52145;49.342;9.116;2022-09-20T19:35:31;10.23;;;4.75;;
65535;SDS011;52145;49.342;9.116;2022-09-20T19:38:05;11.93;;;4.07;;
65535;SDS011;52145;49.342;9.116;2022-09-20T19:43:46;15.90;;;4.95;;
65535;SDS011;52145;49.342;9.116;2022-09-20T19:46:28;20.60;;;6.88;;
65535;SDS011;52145;49.342;9.116;2022-09-20T19:49:04;17.13;;;6.18;;
65535;SDS011;52145;49.342;9.116;2022-09-20T19:51:35;10.57;;;5.13;;
65535;SDS011;52145;49.342;9.116;2022-09-20T19:54:01;8.52;;;4.05;;
65535;SDS011;52145;49.342;9.116;2022-09-20T19:56:27;14.77;;;3.80;;
65535;SDS011;52145;49.342;9.116;2022-09-20T19:58:56;8.20;;;3.13;;
65535;SDS011;52145;49.342;9.116;2022-09-20T20:01:22;9.43;;;3.85;;
65535;SDS011;52145;49.342;9.116;2022-09-20T20:03:49;9.68;;;3.53;;
65535;SDS011;52145;49.342;9.116;2022-09-20T20:06:18;8.70;;;3.53;;
65535;SDS011;52145;49.342;9.116;2022-09-20T20:09:20;6.43;;;3.35;;
65535;SDS011;52145;49.342;9.116;2022-09-20T20:17:47;8.50;;;3.78;;
65535;SDS011;52145;49.342;9.116;2022-09-20T20:23:12;8.25;;;4.50;;
65535;SDS011;52145;49.342;9.116;2022-09-20T20:26:01;9.50;;;3.50;;
65535;SDS011;52145;49.342;9.116;2022-09-20T20:28:46;9.95;;;4.25;;
65535;SDS011;52145;49.342;9.116;2022-09-20T20:31:12;12.93;;;4.82;;
65535;SDS011;52145;49.342;9.116;2022-09-20T20:33:38;14.60;;;5.88;;
65535;SDS011;52145;49.342;9.116;2022-09-20T20:36:04;9.43;;;5.60;;